sensor_id;sensor_type;location;lat;lon;timestamp;pressure;altitude;pressure_sealevel;temperature;humidity
76114;BME280;64845;53.086;5.834;2023-05-10T00:01:48;100778.84;;;11.15;85.24
76114;BME280;64845;53.086;5.834;2023-05-10T00:04:13;100785.94;;;11.16;85.32
76114;BME280;64845;53.086;5.834;2023-05-10T00:06:39;100780.63;;;11.14;85.29
76114;BME280;64845;53.086;5.834;2023-05-10T00:09:04;100780.63;;;11.14;85.42
76114;BME280;64845;53.086;5.834;2023-05-10T00:11:30;100771.91;;;11.11;85.50
76114;BME280;64845;53.086;5.834;2023-05-10T00:13:55;100774.63;;;11.09;85.52
76114;BME280;64845;53.086;5.834;2023-05-10T00:16:21;100784.44;;;11.09;85.24
76114;BME280;64845;53.086;5.834;2023-05-10T00:18:46;100777.28;;;11.09;85.28
76114;BME280;64845;53.086;5.834;2023-05-10T00:21:12;100774.69;;;11.08;85.35
76114;BME280;64845;53.086;5.834;2023-05-10T00:23:37;100775.53;;;11.08;85.16
76114;BME280;64845;53.086;5.834;2023-05-10T00:26:02;100772.03;;;11.08;85.61
76114;BME280;64845;53.086;5.834;2023-05-10T00:28:28;100771.16;;;11.07;85.48
76114;BME280;64845;53.086;5.834;2023-05-10T00:30:54;100767.53;;;11.08;85.51
76114;BME280;64845;53.086;5.834;2023-05-10T00:33:19;100772.81;;;11.10;85.43
76114;BME280;64845;53.086;5.834;2023-05-10T00:35:44;100773.69;;;11.10;85.46
76114;BME280;64845;53.086;5.834;2023-05-10T00:38:10;100766.53;;;11.11;85.67
76114;BME280;64845;53.086;5.834;2023-05-10T00:40:36;100764.72;;;11.11;85.62
76114;BME280;64845;53.086;5.834;2023-05-10T00:43:02;100771.00;;;11.10;85.66
76114;BME280;64845;53.086;5.834;2023-05-10T00:45:29;100760.31;;;11.10;85.79
76114;BME280;64845;53.086;5.834;2023-05-10T00:47:55;100769.22;;;11.11;85.75
76114;BME280;64845;53.086;5.834;2023-05-10T00:50:23;100768.34;;;11.10;85.52
76114;BME280;64845;53.086;5.834;2023-05-10T00:52:49;100760.31;;;11.10;85.48
76114;BME280;64845;53.086;5.834;2023-05-10T00:55:15;100764.72;;;11.11;85.73
76114;BME280;64845;53.086;5.834;2023-05-10T00:57:41;100765.66;;;11.10;85.86
76114;BME280;64845;53.086;5.834;2023-05-10T01:00:07;100756.84;;;11.08;85.83
76114;BME280;64845;53.086;5.834;2023-05-10T01:02:34;100761.31;;;11.08;85.87
76114;BME280;64845;53.086;5.834;2023-05-10T01:05:00;100764.09;;;11.06;85.85
76114;BME280;64845;53.086;5.834;2023-05-10T01:07:26;100757.13;;;11.02;85.96
76114;BME280;64845;53.086;5.834;2023-05-10T01:09:52;100763.28;;;11.04;85.90
76114;BME280;64845;53.086;5.834;2023-05-10T01:12:17;100771.28;;;11.04;85.85
76114;BME280;64845;53.086;5.834;2023-05-10T01:14:43;100765.00;;;11.05;86.08
76114;BME280;64845;53.086;5.834;2023-05-10T01:17:09;100766.78;;;11.04;86.08
76114;BME280;64845;53.086;5.834;2023-05-10T01:19:36;100763.28;;;11.04;85.85
76114;BME280;64845;53.086;5.834;2023-05-10T01:27:47;100764.13;;;11.04;85.93
76114;BME280;64845;53.086;5.834;2023-05-10T01:31:08;100764.09;;;11.06;86.10
76114;BME280;64845;53.086;5.834;2023-05-10T01:36:32;100768.50;;;11.07;86.10
76114;BME280;64845;53.086;5.834;2023-05-10T01:41:54;100769.25;;;11.09;86.24
76114;BME280;64845;53.086;5.834;2023-05-10T01:47:09;100772.03;;;11.08;86.15
76114;BME280;64845;53.086;5.834;2023-05-10T01:49:44;100772.81;;;11.10;86.21
76114;BME280;64845;53.086;5.834;2023-05-10T01:52:17;100768.34;;;11.10;86.19
76114;BME280;64845;53.086;5.834;2023-05-10T01:54:56;100766.53;;;11.11;86.08
76114;BME280;64845;53.086;5.834;2023-05-10T01:57:26;100771.81;;;11.12;86.28
76114;BME280;64845;53.086;5.834;2023-05-10T01:59:53;100772.75;;;11.11;86.03
76114;BME280;64845;53.086;5.834;2023-05-10T02:02:20;100775.50;;;11.10;86.27
76114;BME280;64845;53.086;5.834;2023-05-10T02:04:47;100772.81;;;11.10;86.24
76114;BME280;64845;53.086;5.834;2023-05-10T02:07:15;100770.19;;;11.08;86.27
76114;BME280;64845;53.086;5.834;2023-05-10T02:09:44;100771.94;;;11.09;86.11
76114;BME280;64845;53.086;5.834;2023-05-10T02:12:13;100771.09;;;11.09;86.29
76114;BME280;64845;53.086;5.834;2023-05-10T02:14:39;100779.09;;;11.09;86.32
76114;BME280;64845;53.086;5.834;2023-05-10T02:17:07;100772.88;;;11.08;86.13
76114;BME280;64845;53.086;5.834;2023-05-10T02:19:36;100772.88;;;11.08;86.35
76114;BME280;64845;53.086;5.834;2023-05-10T02:22:03;100781.78;;;11.09;86.36
76114;BME280;64845;53.086;5.834;2023-05-10T02:24:29;100769.41;;;11.06;86.29
76114;BME280;64845;53.086;5.834;2023-05-10T02:26:56;100777.34;;;11.08;86.23
76114;BME280;64845;53.086;5.834;2023-05-10T02:29:24;100780.09;;;11.06;86.37
76114;BME280;64845;53.086;5.834;2023-05-10T02:31:52;100788.13;;;11.06;86.16
76114;BME280;64845;53.086;5.834;2023-05-10T02:34:21;100785.50;;;11.04;86.36
76114;BME280;64845;53.086;5.834;2023-05-10T02:36:47;100788.16;;;11.04;86.10
76114;BME280;64845;53.086;5.834;2023-05-10T02:39:14;100784.56;;;11.06;86.30
76114;BME280;64845;53.086;5.834;2023-05-10T02:41:41;100781.97;;;11.04;86.35
76114;BME280;64845;53.086;5.834;2023-05-10T02:44:08;100785.47;;;11.06;86.38
76114;BME280;64845;53.086;5.834;2023-05-10T02:46:35;100785.38;;;11.08;86.49
76114;BME280;64845;53.086;5.834;2023-05-10T02:49:02;100774.78;;;11.06;86.35
76114;BME280;64845;53.086;5.834;2023-05-10T02:51:30;100782.72;;;11.08;86.10
76114;BME280;64845;53.086;5.834;2023-05-10T02:54:06;100783.72;;;11.05;86.27
76114;BME280;64845;53.086;5.834;2023-05-10T02:56:35;100779.31;;;11.04;86.08
76114;BME280;64845;53.086;5.834;2023-05-10T02:59:04;100781.03;;;11.05;86.34
76114;BME280;64845;53.086;5.834;2023-05-10T03:01:30;100780.22;;;11.03;86.21
76114;BME280;64845;53.086;5.834;2023-05-10T03:03:55;100784.69;;;11.02;86.27
76114;BME280;64845;53.086;5.834;2023-05-10T03:06:21;100788.28;;;11.01;86.52
76114;BME280;64845;53.086;5.834;2023-05-10T03:08:46;100784.78;;;11.01;86.49
76114;BME280;64845;53.086;5.834;2023-05-10T03:16:16;100783.03;;;11.00;86.17
76114;BME280;64845;53.086;5.834;2023-05-10T03:18:51;100787.44;;;11.01;86.43
76114;BME280;64845;53.086;5.834;2023-05-10T03:21:22;100789.19;;;11.02;86.54
76114;BME280;64845;53.086;5.834;2023-05-10T03:23:51;100784.78;;;11.01;86.35
76114;BME280;64845;53.086;5.834;2023-05-10T03:26:25;100791.91;;;11.00;86.32
76114;BME280;64845;53.086;5.834;2023-05-10T03:28:52;100797.31;;;10.99;86.42
76114;BME280;64845;53.086;5.834;2023-05-10T03:31:18;100802.66;;;10.99;86.38
76114;BME280;64845;53.086;5.834;2023-05-10T03:33:47;100796.38;;;11.00;86.46
76114;BME280;64845;53.086;5.834;2023-05-10T03:36:13;100802.59;;;11.00;86.16
76114;BME280;64845;53.086;5.834;2023-05-10T03:38:39;100800.94;;;10.98;86.56
76114;BME280;64845;53.086;5.834;2023-05-10T03:41:04;100806.25;;;10.98;86.28
76114;BME280;64845;53.086;5.834;2023-05-10T03:43:29;100804.53;;;10.97;86.26
76114;BME280;64845;53.086;5.834;2023-05-10T03:45:55;100808.94;;;10.98;86.52
76114;BME280;64845;53.086;5.834;2023-05-10T03:48:20;100810.75;;;10.97;86.26
76114;BME280;64845;53.086;5.834;2023-05-10T03:50:45;100803.72;;;10.95;86.57
76114;BME280;64845;53.086;5.834;2023-05-10T03:53:11;100820.63;;;10.95;86.55
76114;BME280;64845;53.086;5.834;2023-05-10T03:55:37;100818.91;;;10.94;86.24
76114;BME280;64845;53.086;5.834;2023-05-10T03:58:02;100822.41;;;10.95;86.46
76114;BME280;64845;53.086;5.834;2023-05-10T04:00:28;100822.41;;;10.95;86.55
76114;BME280;64845;53.086;5.834;2023-05-10T04:02:53;100829.50;;;10.96;86.58
76114;BME280;64845;53.086;5.834;2023-05-10T04:05:18;100823.31;;;10.95;86.46
76114;BME280;64845;53.086;5.834;2023-05-10T04:07:44;100821.56;;;10.94;86.44
76114;BME280;64845;53.086;5.834;2023-05-10T04:10:10;100823.22;;;10.97;86.62
76114;BME280;64845;53.086;5.834;2023-05-10T04:12:35;100818.69;;;10.99;86.38
76114;BME280;64845;53.086;5.834;2023-05-10T04:15:00;100816.03;;;10.99;86.44
76114;BME280;64845;53.086;5.834;2023-05-10T04:17:26;100822.19;;;11.01;86.40
76114;BME280;64845;53.086;5.834;2023-05-10T04:19:51;100831.94;;;11.02;86.25
76114;BME280;64845;53.086;5.834;2023-05-10T04:22:19;100824.78;;;11.02;86.27
76114;BME280;64845;53.086;5.834;2023-05-10T04:24:45;100829.19;;;11.03;86.38
76114;BME280;64845;53.086;5.834;2023-05-10T04:27:10;100823.84;;;11.03;86.64
76114;BME280;64845;53.086;5.834;2023-05-10T04:29:36;100823.03;;;11.01;86.57
76114;BME280;64845;53.086;5.834;2023-05-10T04:32:03;100834.53;;;11.03;86.42
76114;BME280;64845;53.086;5.834;2023-05-10T04:34:29;100839.88;;;11.03;86.50
76114;BME280;64845;53.086;5.834;2023-05-10T04:36:54;100839.03;;;11.03;86.65
76114;BME280;64845;53.086;5.834;2023-05-10T04:39:19;100845.22;;;11.03;86.44
76114;BME280;64845;53.086;5.834;2023-05-10T04:41:45;100837.16;;;11.05;86.68
76114;BME280;64845;53.086;5.834;2023-05-10T04:44:10;100840.75;;;11.04;86.36
76114;BME280;64845;53.086;5.834;2023-05-10T04:46:36;100839.88;;;11.03;86.29
76114;BME280;64845;53.086;5.834;2023-05-10T04:49:01;100840.75;;;11.04;86.41
76114;BME280;64845;53.086;5.834;2023-05-10T04:51:26;100850.44;;;11.07;86.53
76114;BME280;64845;53.086;5.834;2023-05-10T04:53:52;100861.13;;;11.07;86.51
76114;BME280;64845;53.086;5.834;2023-05-10T04:56:17;100854.00;;;11.07;86.57
76114;BME280;64845;53.086;5.834;2023-05-10T04:58:43;100856.66;;;11.07;86.74
76114;BME280;64845;53.086;5.834;2023-05-10T05:01:08;100855.72;;;11.08;86.68
76114;BME280;64845;53.086;5.834;2023-05-10T05:03:35;100863.72;;;11.08;86.54
76114;BME280;64845;53.086;5.834;2023-05-10T05:06:01;100861.00;;;11.10;86.69
76114;BME280;64845;53.086;5.834;2023-05-10T05:08:26;100869.88;;;11.10;86.54
76114;BME280;64845;53.086;5.834;2023-05-10T05:10:52;100875.19;;;11.12;86.57
76114;BME280;64845;53.086;5.834;2023-05-10T05:13:17;100868.94;;;11.11;86.62
76114;BME280;64845;53.086;5.834;2023-05-10T05:15:43;100867.16;;;11.12;86.71
76114;BME280;64845;53.086;5.834;2023-05-10T05:18:09;100876.00;;;11.14;86.58
76114;BME280;64845;53.086;5.834;2023-05-10T05:20:34;100874.19;;;11.14;86.57
76114;BME280;64845;53.086;5.834;2023-05-10T05:23:00;100877.72;;;11.15;86.65
76114;BME280;64845;53.086;5.834;2023-05-10T05:25:25;100889.28;;;11.15;86.72
76114;BME280;64845;53.086;5.834;2023-05-10T05:27:51;100889.28;;;11.15;86.54
76114;BME280;64845;53.086;5.834;2023-05-10T05:30:16;100892.75;;;11.17;86.57
76114;BME280;64845;53.086;5.834;2023-05-10T05:32:42;100890.09;;;11.17;86.88
76114;BME280;64845;53.086;5.834;2023-05-10T05:35:07;100896.38;;;11.16;86.76
76114;BME280;64845;53.086;5.834;2023-05-10T05:37:33;100895.44;;;11.17;86.71
76114;BME280;64845;53.086;5.834;2023-05-10T05:39:58;100892.69;;;11.19;86.59
76114;BME280;64845;53.086;5.834;2023-05-10T05:42:23;100900.72;;;11.19;86.65
76114;BME280;64845;53.086;5.834;2023-05-10T05:44:55;100907.88;;;11.18;86.85
76114;BME280;64845;53.086;5.834;2023-05-10T05:47:20;100915.97;;;11.17;86.69
76114;BME280;64845;53.086;5.834;2023-05-10T05:49:45;100911.47;;;11.17;86.61
76114;BME280;64845;53.086;5.834;2023-05-10T05:52:11;100908.88;;;11.16;86.71
76114;BME280;64845;53.086;5.834;2023-05-10T05:54:36;100908.00;;;11.15;86.83
76114;BME280;64845;53.086;5.834;2023-05-10T05:57:02;100911.53;;;11.16;86.78
76114;BME280;64845;53.086;5.834;2023-05-10T05:59:28;100919.50;;;11.17;86.77
76114;BME280;64845;53.086;5.834;2023-05-10T06:01:53;100929.25;;;11.18;86.66
76114;BME280;64845;53.086;5.834;2023-05-10T06:04:19;100931.84;;;11.20;86.76
76114;BME280;64845;53.086;5.834;2023-05-10T06:06:44;100927.31;;;11.22;86.72
76114;BME280;64845;53.086;5.834;2023-05-10T06:09:10;100931.69;;;11.25;86.91
76114;BME280;64845;53.086;5.834;2023-05-10T06:11:36;100931.69;;;11.25;86.61
76114;BME280;64845;53.086;5.834;2023-05-10T06:14:04;100936.22;;;11.23;86.81
76114;BME280;64845;53.086;5.834;2023-05-10T06:16:30;100929.94;;;11.24;86.62
76114;BME280;64845;53.086;5.834;2023-05-10T06:18:56;100931.72;;;11.23;86.85
76114;BME280;64845;53.086;5.834;2023-05-10T06:21:21;100929.06;;;11.23;86.80
76114;BME280;64845;53.086;5.834;2023-05-10T06:23:47;100930.88;;;11.23;86.91
76114;BME280;64845;53.086;5.834;2023-05-10T06:26:12;100937.88;;;11.25;86.67
76114;BME280;64845;53.086;5.834;2023-05-10T06:28:39;100942.31;;;11.26;86.61
76114;BME280;64845;53.086;5.834;2023-05-10T06:31:04;100952.88;;;11.29;86.73
76114;BME280;64845;53.086;5.834;2023-05-10T06:33:30;100954.53;;;11.32;86.55
76114;BME280;64845;53.086;5.834;2023-05-10T06:35:56;100958.97;;;11.33;86.75
76114;BME280;64845;53.086;5.834;2023-05-10T06:38:22;100955.34;;;11.34;86.87
76114;BME280;64845;53.086;5.834;2023-05-10T06:40:47;100951.75;;;11.35;86.67
76114;BME280;64845;53.086;5.834;2023-05-10T06:43:13;100963.44;;;11.32;86.81
76114;BME280;64845;53.086;5.834;2023-05-10T06:45:38;100960.00;;;11.29;86.76
76114;BME280;64845;53.086;5.834;2023-05-10T06:48:03;100965.25;;;11.32;86.69
76114;BME280;64845;53.086;5.834;2023-05-10T06:50:29;100968.78;;;11.32;86.60
76114;BME280;64845;53.086;5.834;2023-05-10T06:52:54;100965.19;;;11.33;86.92
76114;BME280;64845;53.086;5.834;2023-05-10T06:55:20;100966.06;;;11.34;86.62
76114;BME280;64845;53.086;5.834;2023-05-10T06:57:46;100972.28;;;11.34;86.65
76114;BME280;64845;53.086;5.834;2023-05-10T07:00:12;100970.59;;;11.32;86.69
76114;BME280;64845;53.086;5.834;2023-05-10T07:02:38;100977.75;;;11.31;86.50
76114;BME280;64845;53.086;5.834;2023-05-10T07:05:04;100976.94;;;11.29;86.69
76114;BME280;64845;53.086;5.834;2023-05-10T07:07:29;100983.13;;;11.30;86.59
76114;BME280;64845;53.086;5.834;2023-05-10T07:09:55;100978.69;;;11.30;86.62
76114;BME280;64845;53.086;5.834;2023-05-10T07:12:21;100975.00;;;11.33;86.67
76114;BME280;64845;53.086;5.834;2023-05-10T07:14:46;100988.25;;;11.36;86.48
76114;BME280;64845;53.086;5.834;2023-05-10T07:17:12;100989.06;;;11.38;86.21
76114;BME280;64845;53.086;5.834;2023-05-10T07:19:37;100986.38;;;11.38;86.57
76114;BME280;64845;53.086;5.834;2023-05-10T07:22:03;100994.53;;;11.35;86.67
76114;BME280;64845;53.086;5.834;2023-05-10T07:24:28;100997.19;;;11.35;86.59
76114;BME280;64845;53.086;5.834;2023-05-10T07:26:54;100984.75;;;11.34;86.63
76114;BME280;64845;53.086;5.834;2023-05-10T07:29:19;100986.50;;;11.35;86.48
76114;BME280;64845;53.086;5.834;2023-05-10T07:31:44;100984.72;;;11.36;86.49
76114;BME280;64845;53.086;5.834;2023-05-10T07:34:10;100989.00;;;11.40;86.46
76114;BME280;64845;53.086;5.834;2023-05-10T07:36:35;100992.44;;;11.43;86.47
76114;BME280;64845;53.086;5.834;2023-05-10T07:39:01;100996.78;;;11.46;86.58
76114;BME280;64845;53.086;5.834;2023-05-10T07:41:26;100998.44;;;11.48;86.44
76114;BME280;64845;53.086;5.834;2023-05-10T07:43:52;101000.19;;;11.49;86.57
76114;BME280;64845;53.086;5.834;2023-05-10T07:46:17;101007.22;;;11.52;86.48
76114;BME280;64845;53.086;5.834;2023-05-10T07:48:44;101014.25;;;11.55;86.47
76114;BME280;64845;53.086;5.834;2023-05-10T07:51:09;101016.00;;;11.56;86.48
76114;BME280;64845;53.086;5.834;2023-05-10T07:53:35;101007.03;;;11.57;86.51
76114;BME280;64845;53.086;5.834;2023-05-10T07:58:45;101013.13;;;11.60;86.40
76114;BME280;64845;53.086;5.834;2023-05-10T08:01:10;101024.75;;;11.59;86.45
76114;BME280;64845;53.086;5.834;2023-05-10T08:03:36;101015.00;;;11.58;86.54
76114;BME280;64845;53.086;5.834;2023-05-10T08:06:01;101023.91;;;11.59;86.50
76114;BME280;64845;53.086;5.834;2023-05-10T08:08:26;101027.38;;;11.61;86.50
76114;BME280;64845;53.086;5.834;2023-05-10T08:10:52;101029.94;;;11.64;86.09
76114;BME280;64845;53.086;5.834;2023-05-10T08:13:17;101043.13;;;11.69;86.49
76114;BME280;64845;53.086;5.834;2023-05-10T08:15:42;101040.44;;;11.69;86.46
76114;BME280;64845;53.086;5.834;2023-05-10T08:18:08;101045.69;;;11.72;86.43
76114;BME280;64845;53.086;5.834;2023-05-10T08:20:33;101045.56;;;11.75;86.34
76114;BME280;64845;53.086;5.834;2023-05-10T08:22:58;101035.72;;;11.75;86.31
76114;BME280;64845;53.086;5.834;2023-05-10T08:25:24;101040.81;;;11.82;86.38
76114;BME280;64845;53.086;5.834;2023-05-10T08:27:49;101040.50;;;11.89;86.38
76114;BME280;64845;53.086;5.834;2023-05-10T08:30:15;101043.69;;;11.99;86.30
76114;BME280;64845;53.086;5.834;2023-05-10T08:32:40;101044.22;;;12.07;86.37
76114;BME280;64845;53.086;5.834;2023-05-10T08:35:05;101041.31;;;12.14;86.36
76114;BME280;64845;53.086;5.834;2023-05-10T08:37:31;101047.34;;;12.19;86.27
76114;BME280;64845;53.086;5.834;2023-05-10T08:39:57;101043.53;;;12.24;86.30
76114;BME280;64845;53.086;5.834;2023-05-10T08:42:25;101037.03;;;12.30;86.30
76114;BME280;64845;53.086;5.834;2023-05-10T08:44:54;101031.50;;;12.35;86.22
76114;BME280;64845;53.086;5.834;2023-05-10T08:47:20;101041.19;;;12.37;86.13
76114;BME280;64845;53.086;5.834;2023-05-10T08:49:47;101041.06;;;12.41;86.24
76114;BME280;64845;53.086;5.834;2023-05-10T08:52:17;101041.06;;;12.41;86.08
76114;BME280;64845;53.086;5.834;2023-05-10T08:54:43;101047.16;;;12.44;86.09
76114;BME280;64845;53.086;5.834;2023-05-10T08:57:09;101056.81;;;12.48;86.00
76114;BME280;64845;53.086;5.834;2023-05-10T08:59:35;101052.38;;;12.47;86.00
76114;BME280;64845;53.086;5.834;2023-05-10T09:02:01;101054.16;;;12.47;85.96
76114;BME280;64845;53.086;5.834;2023-05-10T09:04:29;101053.19;;;12.49;85.98
76114;BME280;64845;53.086;5.834;2023-05-10T09:06:55;101066.28;;;12.55;86.03
76114;BME280;64845;53.086;5.834;2023-05-10T09:09:21;101068.13;;;12.55;85.79
76114;BME280;64845;53.086;5.834;2023-05-10T09:11:47;101069.66;;;12.61;85.78
76114;BME280;64845;53.086;5.834;2023-05-10T09:14:12;101077.63;;;12.62;85.78
76114;BME280;64845;53.086;5.834;2023-05-10T09:16:39;101082.84;;;12.65;85.67
76114;BME280;64845;53.086;5.834;2023-05-10T09:19:05;101090.56;;;12.73;85.61
76114;BME280;64845;53.086;5.834;2023-05-10T09:21:32;101087.59;;;12.79;85.66
76114;BME280;64845;53.086;5.834;2023-05-10T09:24:03;101082.09;;;12.82;85.67
76114;BME280;64845;53.086;5.834;2023-05-10T09:26:29;101086.41;;;12.87;85.57
76114;BME280;64845;53.086;5.834;2023-05-10T09:28:56;101084.53;;;12.89;85.38
76114;BME280;64845;53.086;5.834;2023-05-10T09:31:22;101090.72;;;12.89;85.45
76114;BME280;64845;53.086;5.834;2023-05-10T09:33:49;101094.09;;;12.94;85.35
76114;BME280;64845;53.086;5.834;2023-05-10T09:36:15;101095.09;;;12.92;85.56
76114;BME280;64845;53.086;5.834;2023-05-10T09:38:48;101097.72;;;12.93;85.26
76114;BME280;64845;53.086;5.834;2023-05-10T09:41:22;101102.94;;;12.96;84.95
76114;BME280;64845;53.086;5.834;2023-05-10T09:43:48;101098.28;;;13.00;85.03
76114;BME280;64845;53.086;5.834;2023-05-10T09:46:15;101107.22;;;13.00;84.99
76114;BME280;64845;53.086;5.834;2023-05-10T09:48:43;101115.91;;;13.06;85.00
76114;BME280;64845;53.086;5.834;2023-05-10T09:51:09;101112.28;;;13.07;84.91
76114;BME280;64845;53.086;5.834;2023-05-10T09:53:34;101111.44;;;13.06;84.76
76114;BME280;64845;53.086;5.834;2023-05-10T09:55:59;101116.66;;;13.09;84.76
76114;BME280;64845;53.086;5.834;2023-05-10T09:58:25;101121.00;;;13.12;84.72
76114;BME280;64845;53.086;5.834;2023-05-10T10:00:50;101124.56;;;13.12;84.64
76114;BME280;64845;53.086;5.834;2023-05-10T10:03:19;101122.81;;;13.11;84.57
76114;BME280;64845;53.086;5.834;2023-05-10T10:05:47;101122.75;;;13.13;84.48
76114;BME280;64845;53.086;5.834;2023-05-10T10:08:13;101125.22;;;13.18;84.17
76114;BME280;64845;53.086;5.834;2023-05-10T10:10:39;101129.38;;;13.25;84.42
76114;BME280;64845;53.086;5.834;2023-05-10T10:13:10;101135.41;;;13.30;84.29
76114;BME280;64845;53.086;5.834;2023-05-10T10:15:35;101134.25;;;13.36;84.00
76114;BME280;64845;53.086;5.834;2023-05-10T10:18:01;101128.75;;;13.39;84.24
76114;BME280;64845;53.086;5.834;2023-05-10T10:20:27;101132.03;;;13.45;84.13
76114;BME280;64845;53.086;5.834;2023-05-10T10:22:54;101134.34;;;13.53;84.14
76114;BME280;64845;53.086;5.834;2023-05-10T10:25:20;101141.38;;;13.56;84.08
76114;BME280;64845;53.086;5.834;2023-05-10T10:30:40;101146.47;;;13.62;83.83
76114;BME280;64845;53.086;5.834;2023-05-10T10:35:52;101149.25;;;13.60;83.61
76114;BME280;64845;53.086;5.834;2023-05-10T10:38:17;101137.63;;;13.60;83.53
76114;BME280;64845;53.086;5.834;2023-05-10T10:40:43;101143.69;;;13.64;83.32
76114;BME280;64845;53.086;5.834;2023-05-10T10:46:12;101143.00;;;13.79;83.45
76114;BME280;64845;53.086;5.834;2023-05-10T10:48:39;101150.13;;;13.80;83.18
76114;BME280;64845;53.086;5.834;2023-05-10T10:51:04;101147.44;;;13.80;83.17
76114;BME280;64845;53.086;5.834;2023-05-10T10:53:30;101152.00;;;13.78;83.08
76114;BME280;64845;53.086;5.834;2023-05-10T10:56:09;101149.31;;;13.78;82.75
76114;BME280;64845;53.086;5.834;2023-05-10T10:58:36;101150.31;;;13.75;82.64
76114;BME280;64845;53.086;5.834;2023-05-10T11:01:10;101156.34;;;13.81;82.59
76114;BME280;64845;53.086;5.834;2023-05-10T11:03:36;101158.78;;;13.85;82.62
76114;BME280;64845;53.086;5.834;2023-05-10T11:06:01;101161.41;;;13.87;82.45
76114;BME280;64845;53.086;5.834;2023-05-10T11:08:32;101162.22;;;13.89;82.42
76114;BME280;64845;53.086;5.834;2023-05-10T11:15:58;101168.16;;;13.96;82.22
76114;BME280;64845;53.086;5.834;2023-05-10T11:18:30;101175.84;;;14.03;81.83
76114;BME280;64845;53.086;5.834;2023-05-10T11:21:00;101174.91;;;14.04;81.89
76114;BME280;64845;53.086;5.834;2023-05-10T11:23:32;101175.47;;;14.11;81.80
76114;BME280;64845;53.086;5.834;2023-05-10T11:25:59;101180.69;;;14.14;81.75
76114;BME280;64845;53.086;5.834;2023-05-10T11:28:26;101182.28;;;14.18;81.57
76114;BME280;64845;53.086;5.834;2023-05-10T11:30:52;101181.03;;;14.26;81.26
76114;BME280;64845;53.086;5.834;2023-05-10T11:33:19;101182.63;;;14.30;81.29
76114;BME280;64845;53.086;5.834;2023-05-10T11:35:45;101184.28;;;14.32;81.02
76114;BME280;64845;53.086;5.834;2023-05-10T11:38:12;101181.53;;;14.34;80.93
76114;BME280;64845;53.086;5.834;2023-05-10T11:40:39;101187.75;;;14.34;80.78
76114;BME280;64845;53.086;5.834;2023-05-10T11:43:04;101186.66;;;14.39;80.67
76114;BME280;64845;53.086;5.834;2023-05-10T11:45:34;101190.88;;;14.44;80.36
76114;BME280;64845;53.086;5.834;2023-05-10T11:48:01;101178.88;;;14.51;80.37
76114;BME280;64845;53.086;5.834;2023-05-10T11:50:27;101179.69;;;14.54;80.24
76114;BME280;64845;53.086;5.834;2023-05-10T11:52:53;101182.06;;;14.60;79.97
76114;BME280;64845;53.086;5.834;2023-05-10T11:55:19;101187.59;;;14.57;79.78
76114;BME280;64845;53.086;5.834;2023-05-10T11:57:45;101198.53;;;14.52;79.57
76114;BME280;64845;53.086;5.834;2023-05-10T12:00:12;101200.59;;;14.47;79.51
76114;BME280;64845;53.086;5.834;2023-05-10T12:02:38;101206.13;;;14.44;79.30
76114;BME280;64845;53.086;5.834;2023-05-10T12:05:04;101207.22;;;14.40;78.98
76114;BME280;64845;53.086;5.834;2023-05-10T12:07:30;101207.16;;;14.41;79.26
76114;BME280;64845;53.086;5.834;2023-05-10T12:10:10;101207.16;;;14.41;79.02
76114;BME280;64845;53.086;5.834;2023-05-10T12:12:40;101205.47;;;14.39;79.11
76114;BME280;64845;53.086;5.834;2023-05-10T12:15:18;101208.09;;;14.40;78.92
76114;BME280;64845;53.086;5.834;2023-05-10T12:17:45;101215.13;;;14.43;78.67
76114;BME280;64845;53.086;5.834;2023-05-10T12:20:18;101212.06;;;14.50;78.59
76114;BME280;64845;53.086;5.834;2023-05-10T12:22:49;101210.81;;;14.58;78.47
76114;BME280;64845;53.086;5.834;2023-05-10T12:25:15;101217.63;;;14.65;78.56
76114;BME280;64845;53.086;5.834;2023-05-10T12:27:48;101224.69;;;14.68;78.46
76114;BME280;64845;53.086;5.834;2023-05-10T12:30:22;101221.63;;;14.75;78.24
76114;BME280;64845;53.086;5.834;2023-05-10T12:32:47;101221.28;;;14.81;78.04
76114;BME280;64845;53.086;5.834;2023-05-10T12:35:13;101220.28;;;14.84;77.83
76114;BME280;64845;53.086;5.834;2023-05-10T12:37:38;101221.09;;;14.86;77.74
76114;BME280;64845;53.086;5.834;2023-05-10T12:40:08;101220.06;;;14.89;77.56
76114;BME280;64845;53.086;5.834;2023-05-10T12:42:35;101227.16;;;14.90;77.43
76114;BME280;64845;53.086;5.834;2023-05-10T12:45:04;101219.00;;;14.91;77.34
76114;BME280;64845;53.086;5.834;2023-05-10T12:47:31;101219.59;;;14.98;77.39
76114;BME280;64845;53.086;5.834;2023-05-10T12:49:56;101227.31;;;15.04;77.16
76114;BME280;64845;53.086;5.834;2023-05-10T12:52:22;101231.28;;;15.15;77.32
76114;BME280;64845;53.086;5.834;2023-05-10T12:54:47;101237.13;;;15.23;77.10
76114;BME280;64845;53.086;5.834;2023-05-10T12:57:13;101227.94;;;15.27;77.01
76114;BME280;64845;53.086;5.834;2023-05-10T12:59:38;101237.59;;;15.31;76.80
76114;BME280;64845;53.086;5.834;2023-05-10T13:02:04;101237.34;;;15.36;76.45
76114;BME280;64845;53.086;5.834;2023-05-10T13:04:30;101238.16;;;15.38;76.33
76114;BME280;64845;53.086;5.834;2023-05-10T13:06:55;101234.41;;;15.40;75.71
76114;BME280;64845;53.086;5.834;2023-05-10T13:09:26;101242.25;;;15.45;75.98
76114;BME280;64845;53.086;5.834;2023-05-10T13:11:53;101239.22;;;15.51;76.01
76114;BME280;64845;53.086;5.834;2023-05-10T13:14:19;101243.59;;;15.54;75.60
76114;BME280;64845;53.086;5.834;2023-05-10T13:16:48;101242.72;;;15.53;75.36
76114;BME280;64845;53.086;5.834;2023-05-10T13:19:14;101246.81;;;15.61;74.91
76114;BME280;64845;53.086;5.834;2023-05-10T13:21:39;101245.63;;;15.66;75.03
76114;BME280;64845;53.086;5.834;2023-05-10T13:24:07;101248.16;;;15.69;74.49